sensor_id;sensor_type;location;lat;lon;timestamp;P1;durP1;ratioP1;P2;durP2;ratioP2
14121;SDS011;7139;48.114;11.442;2023-06-10T00:00:02;7.73;;;7.13;;
14121;SDS011;7139;48.114;11.442;2023-06-10T00:02:32;7.53;;;6.93;;
14121;SDS011;7139;48.114;11.442;2023-06-10T00:04:58;8.17;;;7.47;;
14121;SDS011;7139;48.114;11.442;2023-06-10T00:07:25;7.50;;;6.90;;
14121;SDS011;7139;48.114;11.442;2023-06-10T00:09:52;7.70;;;7.10;;
14121;SDS011;7139;48.114;11.442;2023-06-10T00:12:20;8.30;;;7.50;;
14121;SDS011;7139;48.114;11.442;2023-06-10T00:14:48;8.80;;;8.00;;
14121;SDS011;7139;48.114;11.442;2023-06-10T00:17:16;7.90;;;7.30;;
14121;SDS011;7139;48.114;11.442;2023-06-10T00:19:43;7.73;;;7.13;;
14121;SDS011;7139;48.114;11.442;2023-06-10T00:22:12;8.07;;;7.30;;
14121;SDS011;7139;48.114;11.442;2023-06-10T00:24:39;8.13;;;7.33;;
14121;SDS011;7139;48.114;11.442;2023-06-10T00:27:07;7.77;;;7.17;;
14121;SDS011;7139;48.114;11.442;2023-06-10T00:29:33;8.20;;;7.57;;
14121;SDS011;7139;48.114;11.442;2023-06-10T00:32:02;8.33;;;7.60;;
14121;SDS011;7139;48.114;11.442;2023-06-10T00:34:29;7.93;;;7.27;;
14121;SDS011;7139;48.114;11.442;2023-06-10T00:36:57;8.20;;;7.40;;
14121;SDS011;7139;48.114;11.442;2023-06-10T00:39:24;8.10;;;7.30;;
14121;SDS011;7139;48.114;11.442;2023-06-10T00:41:51;7.40;;;6.80;;
14121;SDS011;7139;48.114;11.442;2023-06-10T00:44:17;7.43;;;6.73;;
14121;SDS011;7139;48.114;11.442;2023-06-10T00:46:44;8.53;;;7.77;;
14121;SDS011;7139;48.114;11.442;2023-06-10T00:49:12;8.23;;;7.63;;
14121;SDS011;7139;48.114;11.442;2023-06-10T00:51:39;8.07;;;7.30;;
14121;SDS011;7139;48.114;11.442;2023-06-10T00:54:06;8.53;;;7.73;;
14121;SDS011;7139;48.114;11.442;2023-06-10T00:56:33;8.40;;;7.70;;
14121;SDS011;7139;48.114;11.442;2023-06-10T00:59:01;8.27;;;7.57;;
14121;SDS011;7139;48.114;11.442;2023-06-10T01:01:28;7.80;;;7.20;;
14121;SDS011;7139;48.114;11.442;2023-06-10T01:03:55;7.70;;;7.10;;
14121;SDS011;7139;48.114;11.442;2023-06-10T01:06:31;7.60;;;6.90;;
14121;SDS011;7139;48.114;11.442;2023-06-10T01:09:06;7.70;;;7.00;;
14121;SDS011;7139;48.114;11.442;2023-06-10T01:11:40;7.20;;;6.50;;
14121;SDS011;7139;48.114;11.442;2023-06-10T01:14:09;6.90;;;6.30;;
14121;SDS011;7139;48.114;11.442;2023-06-10T01:16:37;7.10;;;6.53;;
14121;SDS011;7139;48.114;11.442;2023-06-10T01:19:05;7.10;;;6.50;;
14121;SDS011;7139;48.114;11.442;2023-06-10T01:21:34;7.30;;;6.70;;
14121;SDS011;7139;48.114;11.442;2023-06-10T01:24:01;7.23;;;6.63;;
14121;SDS011;7139;48.114;11.442;2023-06-10T01:26:28;7.50;;;6.80;;
14121;SDS011;7139;48.114;11.442;2023-06-10T01:28:58;7.43;;;6.83;;
14121;SDS011;7139;48.114;11.442;2023-06-10T01:31:38;9.10;;;7.47;;
14121;SDS011;7139;48.114;11.442;2023-06-10T01:34:11;7.70;;;6.90;;
14121;SDS011;7139;48.114;11.442;2023-06-10T01:36:41;7.67;;;6.97;;
14121;SDS011;7139;48.114;11.442;2023-06-10T01:39:12;7.33;;;6.73;;
14121;SDS011;7139;48.114;11.442;2023-06-10T01:41:41;7.80;;;7.10;;
14121;SDS011;7139;48.114;11.442;2023-06-10T01:44:08;7.57;;;6.87;;
14121;SDS011;7139;48.114;11.442;2023-06-10T01:46:34;7.73;;;7.03;;
14121;SDS011;7139;48.114;11.442;2023-06-10T01:49:01;7.57;;;6.97;;
14121;SDS011;7139;48.114;11.442;2023-06-10T01:51:28;7.37;;;6.80;;
14121;SDS011;7139;48.114;11.442;2023-06-10T01:53:57;7.60;;;7.00;;
14121;SDS011;7139;48.114;11.442;2023-06-10T01:56:24;7.53;;;6.83;;
14121;SDS011;7139;48.114;11.442;2023-06-10T01:58:51;7.80;;;7.20;;
14121;SDS011;7139;48.114;11.442;2023-06-10T02:01:20;7.80;;;7.20;;
14121;SDS011;7139;48.114;11.442;2023-06-10T02:03:46;8.37;;;7.67;;
14121;SDS011;7139;48.114;11.442;2023-06-10T02:06:13;9.23;;;7.23;;
14121;SDS011;7139;48.114;11.442;2023-06-10T02:08:40;8.07;;;7.33;;
14121;SDS011;7139;48.114;11.442;2023-06-10T02:11:08;8.10;;;7.40;;
14121;SDS011;7139;48.114;11.442;2023-06-10T02:13:35;8.03;;;7.33;;
14121;SDS011;7139;48.114;11.442;2023-06-10T02:16:02;8.53;;;7.83;;
14121;SDS011;7139;48.114;11.442;2023-06-10T02:18:29;8.50;;;7.80;;
14121;SDS011;7139;48.114;11.442;2023-06-10T02:20:55;9.17;;;8.37;;
14121;SDS011;7139;48.114;11.442;2023-06-10T02:23:22;8.60;;;7.90;;
14121;SDS011;7139;48.114;11.442;2023-06-10T02:25:49;8.90;;;8.20;;
14121;SDS011;7139;48.114;11.442;2023-06-10T02:28:17;8.63;;;7.93;;
14121;SDS011;7139;48.114;11.442;2023-06-10T02:30:44;8.40;;;7.60;;
14121;SDS011;7139;48.114;11.442;2023-06-10T02:33:11;9.23;;;8.43;;
14121;SDS011;7139;48.114;11.442;2023-06-10T02:35:39;8.20;;;7.50;;
14121;SDS011;7139;48.114;11.442;2023-06-10T02:38:06;8.70;;;7.97;;
14121;SDS011;7139;48.114;11.442;2023-06-10T02:40:33;8.57;;;7.87;;
14121;SDS011;7139;48.114;11.442;2023-06-10T02:42:59;9.33;;;8.53;;
14121;SDS011;7139;48.114;11.442;2023-06-10T02:45:27;9.00;;;8.20;;
14121;SDS011;7139;48.114;11.442;2023-06-10T02:47:54;9.57;;;8.77;;
14121;SDS011;7139;48.114;11.442;2023-06-10T02:50:21;9.33;;;8.53;;
14121;SDS011;7139;48.114;11.442;2023-06-10T02:52:48;8.87;;;8.17;;
14121;SDS011;7139;48.114;11.442;2023-06-10T02:55:15;8.77;;;7.97;;
14121;SDS011;7139;48.114;11.442;2023-06-10T02:57:41;8.40;;;7.70;;
14121;SDS011;7139;48.114;11.442;2023-06-10T03:00:08;8.80;;;8.00;;
14121;SDS011;7139;48.114;11.442;2023-06-10T03:02:37;8.50;;;7.80;;
14121;SDS011;7139;48.114;11.442;2023-06-10T03:05:04;8.83;;;8.13;;
14121;SDS011;7139;48.114;11.442;2023-06-10T03:07:34;8.33;;;7.63;;
14121;SDS011;7139;48.114;11.442;2023-06-10T03:10:02;9.30;;;8.40;;
14121;SDS011;7139;48.114;11.442;2023-06-10T03:12:29;9.20;;;8.50;;
14121;SDS011;7139;48.114;11.442;2023-06-10T03:14:55;9.07;;;8.27;;
14121;SDS011;7139;48.114;11.442;2023-06-10T03:17:22;9.00;;;8.30;;
14121;SDS011;7139;48.114;11.442;2023-06-10T03:19:50;8.77;;;7.83;;
14121;SDS011;7139;48.114;11.442;2023-06-10T03:22:17;9.07;;;8.27;;
14121;SDS011;7139;48.114;11.442;2023-06-10T03:24:45;8.80;;;8.10;;
14121;SDS011;7139;48.114;11.442;2023-06-10T03:27:15;9.00;;;8.20;;
14121;SDS011;7139;48.114;11.442;2023-06-10T03:29:42;8.73;;;8.03;;
14121;SDS011;7139;48.114;11.442;2023-06-10T03:32:09;8.80;;;8.10;;
14121;SDS011;7139;48.114;11.442;2023-06-10T03:34:36;8.50;;;7.80;;
14121;SDS011;7139;48.114;11.442;2023-06-10T03:37:05;9.20;;;8.30;;
14121;SDS011;7139;48.114;11.442;2023-06-10T03:39:32;9.30;;;8.50;;
14121;SDS011;7139;48.114;11.442;2023-06-10T03:41:59;8.60;;;7.87;;
14121;SDS011;7139;48.114;11.442;2023-06-10T03:44:25;9.30;;;8.40;;
14121;SDS011;7139;48.114;11.442;2023-06-10T03:46:52;9.43;;;8.63;;
14121;SDS011;7139;48.114;11.442;2023-06-10T03:49:19;8.77;;;8.00;;
14121;SDS011;7139;48.114;11.442;2023-06-10T03:51:46;8.83;;;8.03;;
14121;SDS011;7139;48.114;11.442;2023-06-10T03:54:14;9.07;;;8.23;;
14121;SDS011;7139;48.114;11.442;2023-06-10T03:56:41;8.80;;;8.10;;
14121;SDS011;7139;48.114;11.442;2023-06-10T03:59:08;9.10;;;8.30;;
14121;SDS011;7139;48.114;11.442;2023-06-10T04:01:34;9.87;;;8.97;;
14121;SDS011;7139;48.114;11.442;2023-06-10T04:04:02;9.63;;;8.73;;
14121;SDS011;7139;48.114;11.442;2023-06-10T04:06:29;9.37;;;8.47;;
14121;SDS011;7139;48.114;11.442;2023-06-10T04:08:56;8.87;;;8.17;;
14121;SDS011;7139;48.114;11.442;2023-06-10T04:11:25;9.27;;;8.57;;
14121;SDS011;7139;48.114;11.442;2023-06-10T04:13:51;9.67;;;8.87;;
14121;SDS011;7139;48.114;11.442;2023-06-10T04:16:18;9.33;;;8.53;;
14121;SDS011;7139;48.114;11.442;2023-06-10T04:18:46;10.20;;;9.30;;
14121;SDS011;7139;48.114;11.442;2023-06-10T04:21:13;9.70;;;8.57;;
14121;SDS011;7139;48.114;11.442;2023-06-10T04:23:40;9.00;;;8.30;;
14121;SDS011;7139;48.114;11.442;2023-06-10T04:26:07;9.63;;;8.77;;
14121;SDS011;7139;48.114;11.442;2023-06-10T04:28:35;8.77;;;7.97;;
14121;SDS011;7139;48.114;11.442;2023-06-10T04:31:01;9.37;;;8.57;;
14121;SDS011;7139;48.114;11.442;2023-06-10T04:33:29;8.40;;;7.70;;
14121;SDS011;7139;48.114;11.442;2023-06-10T04:35:55;9.70;;;8.17;;
14121;SDS011;7139;48.114;11.442;2023-06-10T04:38:22;8.73;;;8.00;;
14121;SDS011;7139;48.114;11.442;2023-06-10T04:40:49;9.10;;;8.30;;
14121;SDS011;7139;48.114;11.442;2023-06-10T04:43:16;9.77;;;8.80;;
14121;SDS011;7139;48.114;11.442;2023-06-10T04:45:44;9.57;;;8.67;;
14121;SDS011;7139;48.114;11.442;2023-06-10T04:48:12;9.27;;;8.37;;
14121;SDS011;7139;48.114;11.442;2023-06-10T04:50:39;9.20;;;8.40;;
14121;SDS011;7139;48.114;11.442;2023-06-10T04:53:05;9.83;;;9.10;;
14121;SDS011;7139;48.114;11.442;2023-06-10T04:55:32;10.13;;;9.20;;
14121;SDS011;7139;48.114;11.442;2023-06-10T04:57:59;9.40;;;8.60;;
14121;SDS011;7139;48.114;11.442;2023-06-10T05:00:26;9.53;;;8.73;;
14121;SDS011;7139;48.114;11.442;2023-06-10T05:02:54;10.77;;;9.77;;
14121;SDS011;7139;48.114;11.442;2023-06-10T05:05:21;11.10;;;10.10;;
14121;SDS011;7139;48.114;11.442;2023-06-10T05:07:48;10.43;;;9.63;;
14121;SDS011;7139;48.114;11.442;2023-06-10T05:10:14;11.47;;;10.20;;
14121;SDS011;7139;48.114;11.442;2023-06-10T05:12:41;11.03;;;10.13;;
14121;SDS011;7139;48.114;11.442;2023-06-10T05:15:08;11.93;;;10.83;;
14121;SDS011;7139;48.114;11.442;2023-06-10T05:17:36;10.70;;;9.80;;
14121;SDS011;7139;48.114;11.442;2023-06-10T05:20:04;10.17;;;9.27;;
14121;SDS011;7139;48.114;11.442;2023-06-10T05:22:33;10.77;;;9.87;;
14121;SDS011;7139;48.114;11.442;2023-06-10T05:25:00;11.87;;;10.87;;
14121;SDS011;7139;48.114;11.442;2023-06-10T05:27:27;12.33;;;11.23;;
14121;SDS011;7139;48.114;11.442;2023-06-10T05:29:54;11.30;;;10.33;;
14121;SDS011;7139;48.114;11.442;2023-06-10T05:32:21;11.57;;;10.57;;
14121;SDS011;7139;48.114;11.442;2023-06-10T05:34:48;10.87;;;9.97;;
14121;SDS011;7139;48.114;11.442;2023-06-10T05:37:16;11.53;;;10.53;;
14121;SDS011;7139;48.114;11.442;2023-06-10T05:39:43;12.20;;;11.10;;
14121;SDS011;7139;48.114;11.442;2023-06-10T05:42:10;12.80;;;11.60;;
14121;SDS011;7139;48.114;11.442;2023-06-10T05:44:36;12.07;;;11.07;;
14121;SDS011;7139;48.114;11.442;2023-06-10T05:47:03;11.33;;;9.83;;
14121;SDS011;7139;48.114;11.442;2023-06-10T05:49:30;11.23;;;10.23;;
14121;SDS011;7139;48.114;11.442;2023-06-10T05:51:57;10.93;;;9.90;;
14121;SDS011;7139;48.114;11.442;2023-06-10T05:54:25;10.60;;;9.60;;
14121;SDS011;7139;48.114;11.442;2023-06-10T05:56:52;14.93;;;10.10;;
14121;SDS011;7139;48.114;11.442;2023-06-10T05:59:19;12.03;;;10.50;;
14121;SDS011;7139;48.114;11.442;2023-06-10T06:01:47;11.90;;;10.33;;
14121;SDS011;7139;48.114;11.442;2023-06-10T06:04:14;11.10;;;9.90;;
14121;SDS011;7139;48.114;11.442;2023-06-10T06:06:41;11.87;;;10.67;;
14121;SDS011;7139;48.114;11.442;2023-06-10T06:09:08;11.97;;;10.97;;
14121;SDS011;7139;48.114;11.442;2023-06-10T06:11:36;11.40;;;10.40;;
14121;SDS011;7139;48.114;11.442;2023-06-10T06:14:03;11.33;;;10.23;;
14121;SDS011;7139;48.114;11.442;2023-06-10T06:16:30;10.33;;;9.43;;
14121;SDS011;7139;48.114;11.442;2023-06-10T06:18:56;10.83;;;9.73;;
14121;SDS011;7139;48.114;11.442;2023-06-10T06:21:23;11.30;;;10.30;;
14121;SDS011;7139;48.114;11.442;2023-06-10T06:23:50;11.30;;;10.30;;
14121;SDS011;7139;48.114;11.442;2023-06-10T06:26:16;11.43;;;10.27;;
14121;SDS011;7139;48.114;11.442;2023-06-10T06:28:44;11.23;;;10.23;;
14121;SDS011;7139;48.114;11.442;2023-06-10T06:31:11;11.90;;;10.90;;
14121;SDS011;7139;48.114;11.442;2023-06-10T06:33:38;10.53;;;9.63;;
14121;SDS011;7139;48.114;11.442;2023-06-10T06:36:05;10.77;;;9.77;;
14121;SDS011;7139;48.114;11.442;2023-06-10T06:38:32;11.00;;;10.10;;
14121;SDS011;7139;48.114;11.442;2023-06-10T06:40:58;11.13;;;10.13;;
14121;SDS011;7139;48.114;11.442;2023-06-10T06:43:28;11.27;;;10.20;;
14121;SDS011;7139;48.114;11.442;2023-06-10T06:45:56;11.13;;;10.23;;
14121;SDS011;7139;48.114;11.442;2023-06-10T06:48:23;10.73;;;9.83;;
14121;SDS011;7139;48.114;11.442;2023-06-10T06:50:50;11.30;;;10.30;;
14121;SDS011;7139;48.114;11.442;2023-06-10T06:53:17;10.60;;;9.70;;
14121;SDS011;7139;48.114;11.442;2023-06-10T06:55:44;10.20;;;9.17;;
14121;SDS011;7139;48.114;11.442;2023-06-10T06:58:10;9.80;;;9.00;;
14121;SDS011;7139;48.114;11.442;2023-06-10T07:00:37;10.13;;;9.23;;
14121;SDS011;7139;48.114;11.442;2023-06-10T07:03:05;10.17;;;9.17;;
14121;SDS011;7139;48.114;11.442;2023-06-10T07:05:32;10.40;;;9.30;;
14121;SDS011;7139;48.114;11.442;2023-06-10T07:07:58;9.73;;;8.83;;
14121;SDS011;7139;48.114;11.442;2023-06-10T07:10:25;9.53;;;8.73;;
14121;SDS011;7139;48.114;11.442;2023-06-10T07:12:52;9.47;;;8.60;;
14121;SDS011;7139;48.114;11.442;2023-06-10T07:15:19;8.73;;;8.03;;
14121;SDS011;7139;48.114;11.442;2023-06-10T07:17:46;9.47;;;8.67;;
14121;SDS011;7139;48.114;11.442;2023-06-10T07:20:15;8.97;;;8.17;;
14121;SDS011;7139;48.114;11.442;2023-06-10T07:22:43;8.63;;;7.90;;
14121;SDS011;7139;48.114;11.442;2023-06-10T07:25:09;9.20;;;8.30;;
14121;SDS011;7139;48.114;11.442;2023-06-10T07:27:36;9.53;;;8.37;;
14121;SDS011;7139;48.114;11.442;2023-06-10T07:30:04;9.20;;;8.40;;
14121;SDS011;7139;48.114;11.442;2023-06-10T07:32:33;8.80;;;8.10;;
14121;SDS011;7139;48.114;11.442;2023-06-10T07:35:00;8.00;;;7.30;;
14121;SDS011;7139;48.114;11.442;2023-06-10T07:37:28;8.30;;;7.60;;
14121;SDS011;7139;48.114;11.442;2023-06-10T07:39:55;6.93;;;6.33;;
14121;SDS011;7139;48.114;11.442;2023-06-10T07:42:22;7.63;;;7.03;;
14121;SDS011;7139;48.114;11.442;2023-06-10T07:44:49;7.50;;;6.80;;
14121;SDS011;7139;48.114;11.442;2023-06-10T07:47:16;7.40;;;6.70;;
14121;SDS011;7139;48.114;11.442;2023-06-10T07:49:42;6.40;;;5.80;;
14121;SDS011;7139;48.114;11.442;2023-06-10T07:52:09;6.60;;;6.10;;
14121;SDS011;7139;48.114;11.442;2023-06-10T07:54:37;7.37;;;6.77;;
14121;SDS011;7139;48.114;11.442;2023-06-10T07:57:04;6.93;;;6.43;;
14121;SDS011;7139;48.114;11.442;2023-06-10T07:59:32;7.00;;;6.40;;
14121;SDS011;7139;48.114;11.442;2023-06-10T08:01:58;8.30;;;6.50;;
14121;SDS011;7139;48.114;11.442;2023-06-10T08:04:25;6.72;;;6.00;;
14121;SDS011;7139;48.114;11.442;2023-06-10T08:06:52;6.68;;;6.18;;
14121;SDS011;7139;48.114;11.442;2023-06-10T08:09:18;6.53;;;5.95;;
14121;SDS011;7139;48.114;11.442;2023-06-10T08:11:47;5.63;;;5.22;;
14121;SDS011;7139;48.114;11.442;2023-06-10T08:14:15;6.65;;;6.15;;
14121;SDS011;7139;48.114;11.442;2023-06-10T08:16:42;6.93;;;6.32;;
14121;SDS011;7139;48.114;11.442;2023-06-10T08:19:09;6.72;;;6.22;;
14121;SDS011;7139;48.114;11.442;2023-06-10T08:21:36;7.03;;;6.47;;
14121;SDS011;7139;48.114;11.442;2023-06-10T08:24:04;6.25;;;5.65;;
14121;SDS011;7139;48.114;11.442;2023-06-10T08:26:32;5.00;;;4.60;;
14121;SDS011;7139;48.114;11.442;2023-06-10T08:29:00;4.93;;;4.25;;
14121;SDS011;7139;48.114;11.442;2023-06-10T08:31:27;6.70;;;4.32;;
14121;SDS011;7139;48.114;11.442;2023-06-10T08:33:53;4.32;;;3.65;;
14121;SDS011;7139;48.114;11.442;2023-06-10T08:36:20;6.38;;;3.67;;
14121;SDS011;7139;48.114;11.442;2023-06-10T08:38:47;4.38;;;4.00;;
14121;SDS011;7139;48.114;11.442;2023-06-10T08:41:14;4.30;;;4.00;;
14121;SDS011;7139;48.114;11.442;2023-06-10T08:43:46;10.23;;;4.18;;
14121;SDS011;7139;48.114;11.442;2023-06-10T08:46:21;17.83;;;4.72;;
14121;SDS011;7139;48.114;11.442;2023-06-10T08:48:48;6.78;;;4.10;;
14121;SDS011;7139;48.114;11.442;2023-06-10T08:51:20;4.50;;;4.20;;
14121;SDS011;7139;48.114;11.442;2023-06-10T08:53:57;4.80;;;4.40;;
14121;SDS011;7139;48.114;11.442;2023-06-10T08:56:28;4.72;;;4.28;;
14121;SDS011;7139;48.114;11.442;2023-06-10T08:58:55;5.43;;;4.20;;
14121;SDS011;7139;48.114;11.442;2023-06-10T09:01:24;4.50;;;4.20;;
14121;SDS011;7139;48.114;11.442;2023-06-10T09:03:52;4.72;;;4.20;;
14121;SDS011;7139;48.114;11.442;2023-06-10T09:06:20;4.40;;;4.10;;
14121;SDS011;7139;48.114;11.442;2023-06-10T09:08:48;5.25;;;4.57;;
14121;SDS011;7139;48.114;11.442;2023-06-10T09:11:15;5.60;;;5.20;;
14121;SDS011;7139;48.114;11.442;2023-06-10T09:13:42;4.55;;;4.13;;
14121;SDS011;7139;48.114;11.442;2023-06-10T09:16:08;5.05;;;4.60;;
14121;SDS011;7139;48.114;11.442;2023-06-10T09:18:38;8.18;;;5.28;;
14121;SDS011;7139;48.114;11.442;2023-06-10T09:21:05;6.15;;;4.90;;
14121;SDS011;7139;48.114;11.442;2023-06-10T09:23:31;4.88;;;4.50;;
14121;SDS011;7139;48.114;11.442;2023-06-10T09:25:58;6.07;;;5.57;;
14121;SDS011;7139;48.114;11.442;2023-06-10T09:28:25;5.70;;;5.20;;
14121;SDS011;7139;48.114;11.442;2023-06-10T09:31:01;5.35;;;4.95;;
14121;SDS011;7139;48.114;11.442;2023-06-10T09:33:30;5.53;;;5.03;;
14121;SDS011;7139;48.114;11.442;2023-06-10T09:35:59;5.70;;;5.25;;
14121;SDS011;7139;48.114;11.442;2023-06-10T09:38:31;5.70;;;5.30;;
14121;SDS011;7139;48.114;11.442;2023-06-10T09:40:59;5.35;;;4.82;;
14121;SDS011;7139;48.114;11.442;2023-06-10T09:43:38;5.53;;;4.95;;
14121;SDS011;7139;48.114;11.442;2023-06-10T09:46:06;5.57;;;5.00;;
14121;SDS011;7139;48.114;11.442;2023-06-10T09:48:34;5.43;;;4.97;;
14121;SDS011;7139;48.114;11.442;2023-06-10T09:51:09;5.55;;;5.05;;
14121;SDS011;7139;48.114;11.442;2023-06-10T09:53:37;4.82;;;4.50;;
14121;SDS011;7139;48.114;11.442;2023-06-10T09:56:04;5.18;;;4.70;;
14121;SDS011;7139;48.114;11.442;2023-06-10T09:58:37;5.30;;;4.90;;
14121;SDS011;7139;48.114;11.442;2023-06-10T10:01:08;5.18;;;4.68;;
14121;SDS011;7139;48.114;11.442;2023-06-10T10:03:43;5.00;;;4.60;;
14121;SDS011;7139;48.114;11.442;2023-06-10T10:06:13;4.70;;;4.35;;
14121;SDS011;7139;48.114;11.442;2023-06-10T10:08:41;4.88;;;4.50;;
14121;SDS011;7139;48.114;11.442;2023-06-10T10:11:08;5.15;;;4.75;;
14121;SDS011;7139;48.114;11.442;2023-06-10T10:13:35;4.78;;;4.38;;
14121;SDS011;7139;48.114;11.442;2023-06-10T10:16:04;4.47;;;4.18;;
14121;SDS011;7139;48.114;11.442;2023-06-10T10:18:34;4.75;;;4.35;;
14121;SDS011;7139;48.114;11.442;2023-06-10T10:21:05;5.53;;;4.43;;
14121;SDS011;7139;48.114;11.442;2023-06-10T10:23:39;10.27;;;4.47;;
14121;SDS011;7139;48.114;11.442;2023-06-10T10:26:10;5.93;;;4.40;;
14121;SDS011;7139;48.114;11.442;2023-06-10T10:28:39;4.88;;;4.47;;
14121;SDS011;7139;48.114;11.442;2023-06-10T10:31:11;4.63;;;4.20;;
14121;SDS011;7139;48.114;11.442;2023-06-10T10:33:46;4.78;;;4.28;;
14121;SDS011;7139;48.114;11.442;2023-06-10T10:36:18;5.07;;;4.68;;
14121;SDS011;7139;48.114;11.442;2023-06-10T10:38:46;4.45;;;4.15;;
14121;SDS011;7139;48.114;11.442;2023-06-10T10:41:14;4.78;;;4.18;;
14121;SDS011;7139;48.114;11.442;2023-06-10T10:43:41;5.72;;;4.30;;
14121;SDS011;7139;48.114;11.442;2023-06-10T10:46:11;5.15;;;4.75;;
14121;SDS011;7139;48.114;11.442;2023-06-10T10:48:39;4.63;;;4.28;;
14121;SDS011;7139;48.114;11.442;2023-06-10T10:51:06;4.68;;;4.20;;
14121;SDS011;7139;48.114;11.442;2023-06-10T10:53:33;4.93;;;4.53;;
14121;SDS011;7139;48.114;11.442;2023-06-10T10:56:05;5.00;;;4.60;;
14121;SDS011;7139;48.114;11.442;2023-06-10T10:58:33;5.13;;;4.63;;
14121;SDS011;7139;48.114;11.442;2023-06-10T11:01:00;4.38;;;3.97;;
14121;SDS011;7139;48.114;11.442;2023-06-10T11:03:41;4.38;;;4.07;;
14121;SDS011;7139;48.114;11.442;2023-06-10T11:06:12;4.97;;;4.53;;
14121;SDS011;7139;48.114;11.442;2023-06-10T11:08:46;4.95;;;4.57;;
14121;SDS011;7139;48.114;11.442;2023-06-10T11:11:20;4.55;;;4.15;;
14121;SDS011;7139;48.114;11.442;2023-06-10T11:14:06;4.68;;;4.38;;
14121;SDS011;7139;48.114;11.442;2023-06-10T11:16:38;4.72;;;4.43;;
14121;SDS011;7139;48.114;11.442;2023-06-10T11:19:07;4.55;;;4.15;;
14121;SDS011;7139;48.114;11.442;2023-06-10T11:21:37;4.45;;;4.15;;
14121;SDS011;7139;48.114;11.442;2023-06-10T11:24:24;4.05;;;3.75;;
14121;SDS011;7139;48.114;11.442;2023-06-10T11:26:53;4.25;;;3.95;;
14121;SDS011;7139;48.114;11.442;2023-06-10T11:29:20;4.68;;;4.32;;
14121;SDS011;7139;48.114;11.442;2023-06-10T11:31:50;4.68;;;4.28;;
14121;SDS011;7139;48.114;11.442;2023-06-10T11:34:23;4.78;;;4.47;;
14121;SDS011;7139;48.114;11.442;2023-06-10T11:36:52;4.30;;;4.00;;
14121;SDS011;7139;48.114;11.442;2023-06-10T11:39:19;4.60;;;4.20;;
14121;SDS011;7139;48.114;11.442;2023-06-10T11:41:48;4.20;;;3.90;;
14121;SDS011;7139;48.114;11.442;2023-06-10T11:44:19;4.72;;;4.35;;
14121;SDS011;7139;48.114;11.442;2023-06-10T11:46:47;4.03;;;3.72;;
14121;SDS011;7139;48.114;11.442;2023-06-10T11:49:14;4.07;;;3.70;;
14121;SDS011;7139;48.114;11.442;2023-06-10T11:51:41;4.30;;;3.90;;
14121;SDS011;7139;48.114;11.442;2023-06-10T11:54:14;4.25;;;3.85;;
14121;SDS011;7139;48.114;11.442;2023-06-10T11:56:41;4.30;;;4.00;;
14121;SDS011;7139;48.114;11.442;2023-06-10T11:59:08;4.15;;;3.85;;
14121;SDS011;7139;48.114;11.442;2023-06-10T12:01:36;5.80;;;4.00;;
14121;SDS011;7139;48.114;11.442;2023-06-10T12:04:05;3.83;;;3.53;;
14121;SDS011;7139;48.114;11.442;2023-06-10T12:06:40;4.40;;;4.10;;
14121;SDS011;7139;48.114;11.442;2023-06-10T12:09:15;4.20;;;3.90;;
14121;SDS011;7139;48.114;11.442;2023-06-10T12:11:43;4.32;;;3.90;;
14121;SDS011;7139;48.114;11.442;2023-06-10T12:14:10;4.30;;;3.97;;
14121;SDS011;7139;48.114;11.442;2023-06-10T12:16:39;4.70;;;4.32;;
14121;SDS011;7139;48.114;11.442;2023-06-10T12:19:06;4.40;;;4.00;;
14121;SDS011;7139;48.114;11.442;2023-06-10T12:21:33;6.95;;;6.38;;
14121;SDS011;7139;48.114;11.442;2023-06-10T12:24:07;4.10;;;3.80;;
14121;SDS011;7139;48.114;11.442;2023-06-10T12:26:39;4.22;;;3.92;;
14121;SDS011;7139;48.114;11.442;2023-06-10T12:31:59;4.32;;;3.92;;
14121;SDS011;7139;48.114;11.442;2023-06-10T12:34:31;4.20;;;3.90;;
14121;SDS011;7139;48.114;11.442;2023-06-10T12:37:00;3.63;;;3.33;;
14121;SDS011;7139;48.114;11.442;2023-06-10T12:39:29;3.40;;;3.20;;
14121;SDS011;7139;48.114;11.442;2023-06-10T12:41:56;3.92;;;3.63;;
14121;SDS011;7139;48.114;11.442;2023-06-10T12:44:32;3.85;;;3.55;;
14121;SDS011;7139;48.114;11.442;2023-06-10T12:47:06;4.35;;;3.30;;
14121;SDS011;7139;48.114;11.442;2023-06-10T12:49:34;3.63;;;3.30;;
14121;SDS011;7139;48.114;11.442;2023-06-10T12:52:01;3.70;;;3.40;;
14121;SDS011;7139;48.114;11.442;2023-06-10T12:54:29;3.70;;;3.40;;
14121;SDS011;7139;48.114;11.442;2023-06-10T12:56:56;3.70;;;3.40;;
14121;SDS011;7139;48.114;11.442;2023-06-10T12:59:22;3.47;;;3.17;;
14121;SDS011;7139;48.114;11.442;2023-06-10T13:01:50;3.90;;;3.47;;
14121;SDS011;7139;48.114;11.442;2023-06-10T13:04:19;4.55;;;3.60;;
14121;SDS011;7139;48.114;11.442;2023-06-10T13:06:46;3.47;;;3.22;;
14121;SDS011;7139;48.114;11.442;2023-06-10T13:09:14;3.88;;;3.58;;
14121;SDS011;7139;48.114;11.442;2023-06-10T13:11:41;3.63;;;3.33;;
14121;SDS011;7139;48.114;11.442;2023-06-10T13:14:09;4.50;;;3.35;;
14121;SDS011;7139;48.114;11.442;2023-06-10T13:16:36;3.88;;;3.47;;
14121;SDS011;7139;48.114;11.442;2023-06-10T13:19:04;3.40;;;3.20;;
14121;SDS011;7139;48.114;11.442;2023-06-10T13:21:32;4.60;;;3.40;;
14121;SDS011;7139;48.114;11.442;2023-06-10T13:24:00;5.07;;;3.42;;
14121;SDS011;7139;48.114;11.442;2023-06-10T13:26:27;4.10;;;3.80;;
14121;SDS011;7139;48.114;11.442;2023-06-10T13:28:54;3.50;;;3.30;;
14121;SDS011;7139;48.114;11.442;2023-06-10T13:31:20;6.80;;;4.07;;
14121;SDS011;7139;48.114;11.442;2023-06-10T13:33:47;12.25;;;4.68;;
14121;SDS011;7139;48.114;11.442;2023-06-10T13:36:14;4.88;;;3.80;;
14121;SDS011;7139;48.114;11.442;2023-06-10T13:38:42;6.20;;;4.43;;
14121;SDS011;7139;48.114;11.442;2023-06-10T13:41:10;14.63;;;5.07;;
14121;SDS011;7139;48.114;11.442;2023-06-10T13:43:37;6.20;;;4.40;;
14121;SDS011;7139;48.114;11.442;2023-06-10T13:46:04;8.15;;;5.13;;
14121;SDS011;7139;48.114;11.442;2023-06-10T13:48:31;5.63;;;4.07;;
14121;SDS011;7139;48.114;11.442;2023-06-10T13:50:58;26.30;;;5.72;;
14121;SDS011;7139;48.114;11.442;2023-06-10T13:53:25;6.60;;;4.50;;
14121;SDS011;7139;48.114;11.442;2023-06-10T13:55:53;4.95;;;4.53;;
14121;SDS011;7139;48.114;11.442;2023-06-10T13:58:20;4.68;;;4.20;;
14121;SDS011;7139;48.114;11.442;2023-06-10T14:00:47;5.07;;;4.28;;
14121;SDS011;7139;48.114;11.442;2023-06-10T14:03:13;4.68;;;4.35;;
14121;SDS011;7139;48.114;11.442;2023-06-10T14:05:40;4.72;;;4.22;;
14121;SDS011;7139;48.114;11.442;2023-06-10T14:08:07;4.22;;;3.83;;
14121;SDS011;7139;48.114;11.442;2023-06-10T14:10:34;5.20;;;4.40;;
14121;SDS011;7139;48.114;11.442;2023-06-10T14:13:03;4.15;;;3.80;;
14121;SDS011;7139;48.114;11.442;2023-06-10T14:15:30;4.20;;;3.90;;
14121;SDS011;7139;48.114;11.442;2023-06-10T14:17:57;5.10;;;4.60;;
14121;SDS011;7139;48.114;11.442;2023-06-10T14:20:24;3.85;;;3.45;;
14121;SDS011;7139;48.114;11.442;2023-06-10T14:22:51;4.28;;;3.55;;
14121;SDS011;7139;48.114;11.442;2023-06-10T14:25:18;4.93;;;3.88;;
14121;SDS011;7139;48.114;11.442;2023-06-10T14:27:45;4.88;;;3.90;;
14121;SDS011;7139;48.114;11.442;2023-06-10T14:30:13;4.45;;;3.85;;
14121;SDS011;7139;48.114;11.442;2023-06-10T14:32:40;4.43;;;3.80;;
14121;SDS011;7139;48.114;11.442;2023-06-10T14:35:07;3.80;;;3.50;;
14121;SDS011;7139;48.114;11.442;2023-06-10T14:37:34;4.07;;;3.78;;
14121;SDS011;7139;48.114;11.442;2023-06-10T14:40:01;13.50;;;4.05;;
14121;SDS011;7139;48.114;11.442;2023-06-10T14:42:29;5.03;;;3.78;;
14121;SDS011;7139;48.114;11.442;2023-06-10T14:44:57;4.28;;;3.67;;
14121;SDS011;7139;48.114;11.442;2023-06-10T14:47:25;3.92;;;3.63;;
14121;SDS011;7139;48.114;11.442;2023-06-10T14:49:51;4.63;;;4.10;;
14121;SDS011;7139;48.114;11.442;2023-06-10T14:52:18;4.57;;;3.75;;